createdAt,value
2022-09-11T00:01:46.499Z,10.17
2022-09-11T00:04:14.326Z,10.27
2022-09-11T00:06:43.053Z,11.17
2022-09-11T00:09:10.898Z,10.80
2022-09-11T00:11:41.556Z,11.60
2022-09-11T00:14:10.219Z,11.13
2022-09-11T00:16:41.668Z,12.10
2022-09-11T00:19:12.427Z,11.30
2022-09-11T00:21:40.854Z,10.90
2022-09-11T00:24:10.133Z,11.50
2022-09-11T00:26:38.710Z,12.93
2022-09-11T00:29:06.825Z,13.30
2022-09-11T00:31:34.853Z,13.40
2022-09-11T00:34:04.217Z,12.13
2022-09-11T00:36:32.983Z,12.47
2022-09-11T00:39:01.147Z,11.10
2022-09-11T00:41:31.769Z,11.33
2022-09-11T00:44:03.277Z,10.37
2022-09-11T00:46:35.704Z,11.10
2022-09-11T00:49:16.684Z,12.00
2022-09-11T00:51:47.828Z,12.40
2022-09-11T00:54:20.992Z,10.83
2022-09-11T00:56:50.319Z,11.40
2022-09-11T00:59:21.322Z,11.90
2022-09-11T01:01:49.225Z,11.80
2022-09-11T01:04:18.558Z,12.17
2022-09-11T01:06:46.741Z,9.97
2022-09-11T01:09:14.553Z,10.67
2022-09-11T01:11:54.943Z,13.47
2022-09-11T01:14:34.756Z,10.40
2022-09-11T01:17:16.013Z,6.93
2022-09-11T01:20:14.190Z,8.33
2022-09-11T01:23:04.874Z,7.90
2022-09-11T01:25:46.450Z,8.73
2022-09-11T01:28:17.777Z,9.40
2022-09-11T01:30:48.561Z,9.70
2022-09-11T01:33:25.096Z,8.70
2022-09-11T01:36:00.629Z,9.60
2022-09-11T01:38:36.310Z,9.10
2022-09-11T01:41:10.258Z,9.80
2022-09-11T01:43:43.396Z,9.33
2022-09-11T01:46:17.375Z,8.07
2022-09-11T01:48:48.559Z,10.40
2022-09-11T01:51:21.576Z,9.23
2022-09-11T01:53:52.242Z,9.53
2022-09-11T01:56:24.770Z,9.33
2022-09-11T01:58:58.396Z,10.23
2022-09-11T02:01:31.495Z,10.20
2022-09-11T02:04:07.087Z,10.43
2022-09-11T02:06:38.756Z,11.13
2022-09-11T02:09:10.302Z,11.40
2022-09-11T02:11:41.890Z,9.77
2022-09-11T02:14:17.915Z,10.53
2022-09-11T02:16:50.925Z,10.97
2022-09-11T02:19:20.778Z,11.80
2022-09-11T02:21:49.086Z,10.67
2022-09-11T02:24:17.676Z,14.17
2022-09-11T02:26:49.410Z,13.87
2022-09-11T02:29:18.982Z,14.10
2022-09-11T02:31:47.319Z,12.47
2022-09-11T02:34:16.187Z,12.87
2022-09-11T02:37:13.946Z,14.30
2022-09-11T02:39:55.819Z,15.50
2022-09-11T02:42:38.859Z,16.47
2022-09-11T02:45:23.899Z,15.27
2022-09-11T02:47:59.692Z,15.43
2022-09-11T02:50:34.851Z,15.20
2022-09-11T02:53:07.759Z,16.57
2022-09-11T02:55:45.810Z,16.77
2022-09-11T02:58:18.955Z,14.90
2022-09-11T03:00:48.653Z,12.50
2022-09-11T03:03:16.788Z,13.97
2022-09-11T03:05:44.804Z,16.93
2022-09-11T03:08:14.612Z,16.73
2022-09-11T03:10:42.992Z,17.60
2022-09-11T03:13:10.797Z,18.70
2022-09-11T03:15:38.648Z,18.80
2022-09-11T03:18:08.045Z,20.40
2022-09-11T03:20:35.807Z,18.60
2022-09-11T03:23:09.593Z,20.63
2022-09-11T03:25:37.457Z,20.37
2022-09-11T03:28:05.426Z,20.00
2022-09-11T03:30:34.191Z,20.03
2022-09-11T03:33:02.231Z,19.30
2022-09-11T03:35:31.375Z,18.97
2022-09-11T03:37:59.091Z,19.57
2022-09-11T03:40:27.334Z,19.50
2022-09-11T03:42:55.230Z,20.10
2022-09-11T03:45:23.023Z,20.23
2022-09-11T03:47:50.759Z,18.50
2022-09-11T03:50:18.664Z,19.90
2022-09-11T03:52:47.796Z,20.17
2022-09-11T03:55:16.498Z,19.40
2022-09-11T03:57:44.482Z,19.73
2022-09-11T04:00:13.177Z,19.57
2022-09-11T04:02:42.098Z,18.00
2022-09-11T04:05:10.602Z,20.40
2022-09-11T04:07:38.508Z,18.97
2022-09-11T04:10:08.201Z,16.97
2022-09-11T04:12:36.201Z,16.87
2022-09-11T04:15:04.075Z,14.97
2022-09-11T04:17:32.603Z,14.87
2022-09-11T04:20:00.302Z,14.03
2022-09-11T04:22:28.138Z,14.30
2022-09-11T04:24:57.393Z,13.37
2022-09-11T04:27:27.128Z,13.70
2022-09-11T04:29:54.987Z,14.40
2022-09-11T04:32:22.685Z,16.00
2022-09-11T04:34:50.582Z,15.87
2022-09-11T04:37:19.780Z,16.63
2022-09-11T04:39:50.787Z,17.77
2022-09-11T04:42:18.592Z,17.70
2022-09-11T04:44:47.974Z,20.23
2022-09-11T04:47:17.040Z,19.70
2022-09-11T04:49:46.754Z,19.57
2022-09-11T04:52:18.150Z,20.47
2022-09-11T04:54:46.410Z,22.23
2022-09-11T04:57:14.364Z,23.23
2022-09-11T04:59:42.143Z,24.40
2022-09-11T05:02:11.354Z,25.33
2022-09-11T05:04:39.113Z,23.90
2022-09-11T05:07:06.943Z,24.97
2022-09-11T05:09:35.222Z,25.20
2022-09-11T05:12:04.078Z,23.80
2022-09-11T05:14:32.659Z,22.03
2022-09-11T05:17:01.427Z,21.67
2022-09-11T05:19:30.528Z,19.20
2022-09-11T05:21:58.497Z,21.23
2022-09-11T05:24:26.269Z,20.13
2022-09-11T05:26:53.966Z,20.47
2022-09-11T05:29:23.036Z,19.13
2022-09-11T05:31:52.651Z,18.40
2022-09-11T05:34:22.150Z,17.80
2022-09-11T05:36:52.206Z,19.87
2022-09-11T05:39:20.218Z,20.27
2022-09-11T05:41:50.832Z,23.20
2022-09-11T05:44:18.674Z,22.20
2022-09-11T05:46:46.793Z,21.97
2022-09-11T05:49:14.475Z,24.47
2022-09-11T05:51:42.273Z,23.73
2022-09-11T05:54:11.632Z,24.97
2022-09-11T05:56:39.598Z,24.43
2022-09-11T05:59:14.921Z,25.77
2022-09-11T06:01:43.921Z,23.77
2022-09-11T06:04:12.325Z,23.17
2022-09-11T06:06:40.677Z,24.00
2022-09-11T06:09:08.403Z,25.83
2022-09-11T06:11:37.531Z,25.67
2022-09-11T06:14:05.226Z,26.33
2022-09-11T06:16:33.223Z,27.13
2022-09-11T06:19:01.391Z,25.80
2022-09-11T06:21:29.218Z,25.47
2022-09-11T06:23:57.083Z,24.50
2022-09-11T06:26:26.571Z,25.37
2022-09-11T06:28:55.880Z,25.70
2022-09-11T06:31:25.784Z,24.90
2022-09-11T06:33:54.021Z,27.10
2022-09-11T06:36:24.287Z,25.87
2022-09-11T06:38:55.051Z,23.97
2022-09-11T06:41:22.992Z,24.83
2022-09-11T06:43:51.040Z,23.90
2022-09-11T06:46:21.927Z,21.57
2022-09-11T06:48:50.682Z,21.50
2022-09-11T06:51:20.510Z,21.40
2022-09-11T06:53:49.095Z,22.83
2022-09-11T06:56:18.698Z,23.63
2022-09-11T06:58:47.047Z,22.93
2022-09-11T07:01:16.783Z,22.00
2022-09-11T07:03:47.110Z,22.87
2022-09-11T07:06:16.151Z,23.27
2022-09-11T07:08:44.097Z,24.10
2022-09-11T07:11:12.829Z,23.57
2022-09-11T07:13:42.008Z,24.73
2022-09-11T07:16:12.514Z,23.63
2022-09-11T07:18:41.875Z,24.17
2022-09-11T07:21:13.327Z,22.70
2022-09-11T07:23:43.296Z,24.83
2022-09-11T07:26:13.264Z,23.73
2022-09-11T07:28:41.388Z,25.20
2022-09-11T07:31:11.910Z,24.20
2022-09-11T07:33:40.493Z,24.93
2022-09-11T07:36:11.983Z,24.80
2022-09-11T07:38:40.900Z,24.13
2022-09-11T07:41:08.791Z,25.20
2022-09-11T07:43:36.902Z,24.33
2022-09-11T07:46:05.757Z,25.30
2022-09-11T07:48:34.041Z,25.03
2022-09-11T07:51:04.426Z,26.90
2022-09-11T07:53:35.347Z,25.03
2022-09-11T07:56:04.731Z,25.13
2022-09-11T07:58:35.035Z,25.23
2022-09-11T08:01:03.540Z,25.17
2022-09-11T08:03:31.397Z,23.50
2022-09-11T08:05:59.803Z,24.20
2022-09-11T08:08:29.237Z,24.30
2022-09-11T08:10:58.371Z,24.00
2022-09-11T08:13:26.111Z,23.70
2022-09-11T08:15:53.847Z,24.77
2022-09-11T08:18:21.557Z,23.60
2022-09-11T08:20:49.323Z,23.67
2022-09-11T08:23:17.417Z,24.00
2022-09-11T08:25:45.505Z,24.27
2022-09-11T08:28:15.074Z,22.50
2022-09-11T08:30:43.034Z,21.97
2022-09-11T08:33:14.047Z,21.07
2022-09-11T08:35:42.382Z,19.63
2022-09-11T08:38:10.114Z,18.97
2022-09-11T08:40:39.037Z,19.13
2022-09-11T08:43:07.232Z,19.80
2022-09-11T08:45:36.925Z,19.57
2022-09-11T08:48:09.171Z,20.07
2022-09-11T08:50:40.904Z,18.93
2022-09-11T08:53:15.219Z,18.63
2022-09-11T08:55:46.689Z,19.20
2022-09-11T08:58:24.104Z,18.20
2022-09-11T09:00:58.901Z,18.57
2022-09-11T09:03:49.077Z,18.20
2022-09-11T09:06:28.750Z,17.67
2022-09-11T09:09:04.530Z,17.93
2022-09-11T09:11:39.959Z,18.50
2022-09-11T09:14:51.839Z,17.53
2022-09-11T09:17:24.925Z,17.90
2022-09-11T09:20:00.470Z,17.43
2022-09-11T09:22:37.473Z,18.03
2022-09-11T09:25:11.946Z,16.33
2022-09-11T09:27:43.399Z,15.77
2022-09-11T09:30:16.858Z,16.23
2022-09-11T09:32:50.702Z,16.07
2022-09-11T09:35:24.487Z,18.17
2022-09-11T09:37:52.463Z,18.87
2022-09-11T09:40:20.401Z,19.37
2022-09-11T09:43:14.438Z,18.67
2022-09-11T09:46:04.467Z,18.93
2022-09-11T09:48:40.624Z,18.90
2022-09-11T09:51:13.397Z,17.73
2022-09-11T09:53:45.779Z,18.37
2022-09-11T09:56:17.459Z,16.93
2022-09-11T09:58:51.828Z,17.47
2022-09-11T10:01:44.822Z,18.97
2022-09-11T10:04:17.452Z,19.67
2022-09-11T10:06:46.991Z,19.53
2022-09-11T10:09:28.039Z,19.47
2022-09-11T10:12:02.435Z,20.50
2022-09-11T10:17:31.242Z,20.03
2022-09-11T10:20:21.836Z,19.70
2022-09-11T10:22:50.758Z,18.40
2022-09-11T10:25:21.385Z,18.33
2022-09-11T10:27:59.287Z,18.10
2022-09-11T10:30:31.387Z,18.77
2022-09-11T10:33:03.706Z,18.30
2022-09-11T10:35:35.588Z,19.10
2022-09-11T10:38:17.812Z,19.47
2022-09-11T10:40:59.379Z,18.13
2022-09-11T10:43:35.523Z,17.10
2022-09-11T10:46:05.405Z,18.57
2022-09-11T10:48:33.801Z,17.27
2022-09-11T10:51:10.788Z,19.13
2022-09-11T10:53:48.984Z,14.37
2022-09-11T10:56:17.766Z,13.53
2022-09-11T10:58:51.368Z,13.27
2022-09-11T11:01:21.220Z,13.83
2022-09-11T11:03:49.014Z,13.53
2022-09-11T11:06:32.579Z,14.07
2022-09-11T11:09:30.852Z,14.63
2022-09-11T11:12:18.514Z,13.70
2022-09-11T11:15:01.343Z,13.57
2022-09-11T11:17:38.502Z,13.67
2022-09-11T11:20:22.093Z,13.17
2022-09-11T11:23:16.356Z,13.23
2022-09-11T11:25:54.159Z,12.57
2022-09-11T11:28:43.260Z,14.10
2022-09-11T11:31:23.904Z,13.37
2022-09-11T11:34:09.170Z,13.47
2022-09-11T11:36:42.619Z,13.00
2022-09-11T11:39:23.641Z,13.83
2022-09-11T11:42:01.634Z,14.10
2022-09-11T11:44:33.933Z,14.20
2022-09-11T11:47:06.700Z,13.77
2022-09-11T11:49:48.892Z,13.93
2022-09-11T11:52:38.529Z,14.27
2022-09-11T11:55:18.371Z,13.17
2022-09-11T11:57:56.752Z,13.10
2022-09-11T12:00:25.486Z,13.47
2022-09-11T12:02:59.443Z,13.17
2022-09-11T12:05:30.236Z,13.23
2022-09-11T12:07:59.023Z,14.27
2022-09-11T12:10:34.751Z,13.43
2022-09-11T12:13:07.320Z,14.60
2022-09-11T12:15:36.679Z,13.60
2022-09-11T12:18:08.316Z,12.23
2022-09-11T12:20:41.493Z,12.25
2022-09-11T12:23:46.914Z,11.77
2022-09-11T12:26:22.135Z,11.85
2022-09-11T12:28:50.755Z,11.30
2022-09-11T12:31:19.379Z,11.30
2022-09-11T12:33:57.322Z,11.45
2022-09-11T12:36:37.345Z,11.48
2022-09-11T12:39:23.968Z,11.88
2022-09-11T12:41:53.383Z,11.15
2022-09-11T12:44:54.137Z,10.77
2022-09-11T12:47:24.851Z,11.27
2022-09-11T12:49:57.132Z,11.10
2022-09-11T12:52:35.730Z,11.93
2022-09-11T12:55:22.679Z,12.77
2022-09-11T12:57:52.367Z,12.10
2022-09-11T13:00:24.447Z,11.53
2022-09-11T13:02:56.823Z,11.10
2022-09-11T13:05:28.066Z,11.43
2022-09-11T13:08:00.627Z,10.73
2022-09-11T13:10:33.408Z,10.23
2022-09-11T13:13:04.677Z,10.63
2022-09-11T13:15:37.724Z,10.85
2022-09-11T13:18:32.250Z,9.88
2022-09-11T13:21:03.364Z,9.82
2022-09-11T13:23:31.521Z,9.40
2022-09-11T13:25:59.510Z,9.05
2022-09-11T13:28:31.820Z,8.90
2022-09-11T13:31:02.088Z,6.80
2022-09-11T13:33:32.595Z,7.65
2022-09-11T13:36:03.574Z,7.57
2022-09-11T13:38:34.980Z,7.53
2022-09-11T13:41:06.982Z,7.15
2022-09-11T13:43:39.653Z,7.50
2022-09-11T13:46:12.388Z,8.23
2022-09-11T13:48:40.172Z,6.38
2022-09-11T13:51:13.504Z,6.50
2022-09-11T13:53:43.686Z,6.20
2022-09-11T13:56:21.653Z,6.50
2022-09-11T13:58:53.564Z,8.82
2022-09-11T14:01:21.580Z,7.50
2022-09-11T14:03:49.952Z,6.72
2022-09-11T14:06:20.770Z,6.65
2022-09-11T14:08:52.420Z,6.32
2022-09-11T14:11:26.014Z,6.63
2022-09-11T14:13:59.384Z,5.68
2022-09-11T14:16:31.480Z,6.15
2022-09-11T14:19:03.950Z,5.88
2022-09-11T14:21:34.559Z,5.53
2022-09-11T14:24:07.163Z,5.60
2022-09-11T14:26:42.333Z,5.03
2022-09-11T14:29:25.638Z,4.97
2022-09-11T14:31:54.879Z,5.57
2022-09-11T14:34:26.320Z,6.03
2022-09-11T14:36:57.489Z,6.05
2022-09-11T14:39:34.482Z,6.18
2022-09-11T14:42:03.173Z,6.00
2022-09-11T14:44:32.755Z,6.47
2022-09-11T14:47:00.585Z,6.17
2022-09-11T14:49:29.503Z,6.20
2022-09-11T14:51:59.677Z,7.33
2022-09-11T14:54:31.006Z,6.90
2022-09-11T14:56:59.275Z,6.40
2022-09-11T14:59:29.691Z,6.30
2022-09-11T15:01:59.521Z,6.07
2022-09-11T15:04:29.441Z,6.10
2022-09-11T15:06:57.886Z,6.80
2022-09-11T15:09:25.779Z,6.70
2022-09-11T15:11:53.706Z,6.90
2022-09-11T15:14:44.704Z,6.53
2022-09-11T15:17:14.536Z,6.47
2022-09-11T15:19:45.699Z,6.97
2022-09-11T15:22:13.528Z,6.47
2022-09-11T15:24:41.932Z,6.80
2022-09-11T15:27:11.371Z,6.93
2022-09-11T15:29:39.766Z,7.10
2022-09-11T15:32:09.284Z,7.00
2022-09-11T15:34:39.220Z,7.20
2022-09-11T15:37:07.341Z,8.30
2022-09-11T15:39:35.259Z,7.60
2022-09-11T15:42:03.065Z,7.20
2022-09-11T15:44:31.403Z,8.53
2022-09-11T15:46:59.796Z,7.77
2022-09-11T15:49:29.175Z,8.77
2022-09-11T15:51:59.579Z,7.87
2022-09-11T15:54:27.848Z,7.00
2022-09-11T15:56:56.167Z,7.40
2022-09-11T15:59:23.926Z,7.67
2022-09-11T16:01:51.917Z,7.43
2022-09-11T16:04:23.019Z,7.47
2022-09-11T16:06:51.507Z,7.20
2022-09-11T16:09:23.101Z,7.43
2022-09-11T16:11:52.194Z,8.03
2022-09-11T16:14:21.777Z,6.17
2022-09-11T16:16:49.730Z,6.10
2022-09-11T16:19:19.943Z,6.30
2022-09-11T16:21:48.778Z,6.00
2022-09-11T16:24:16.891Z,6.60
2022-09-11T16:26:46.289Z,6.53
2022-09-11T16:29:17.909Z,7.00
2022-09-11T16:31:45.859Z,6.57
2022-09-11T16:34:15.035Z,6.67
2022-09-11T16:36:42.999Z,6.70
2022-09-11T16:39:13.046Z,5.87
2022-09-11T16:41:40.887Z,6.57
2022-09-11T16:44:12.797Z,6.70
2022-09-11T16:46:42.208Z,7.20
2022-09-11T16:49:11.109Z,7.50
2022-09-11T16:51:38.940Z,6.93
2022-09-11T16:54:07.725Z,6.37
2022-09-11T16:56:35.533Z,6.17
2022-09-11T16:59:03.288Z,6.47
2022-09-11T17:01:32.394Z,6.60
2022-09-11T17:04:00.205Z,6.67
2022-09-11T17:06:29.878Z,6.67
2022-09-11T17:09:00.134Z,7.10
2022-09-11T17:11:29.685Z,6.53
2022-09-11T17:13:57.906Z,6.60
2022-09-11T17:16:28.191Z,6.80
2022-09-11T17:18:58.413Z,6.87
2022-09-11T17:21:27.619Z,7.40
2022-09-11T17:23:57.016Z,7.40
2022-09-11T17:26:25.189Z,7.50
2022-09-11T17:28:55.062Z,7.00
2022-09-11T17:31:23.535Z,7.37
2022-09-11T17:33:51.448Z,7.57
2022-09-11T17:36:22.231Z,7.37
2022-09-11T17:38:52.492Z,7.60
2022-09-11T17:41:21.857Z,7.83
2022-09-11T17:43:49.926Z,7.70
2022-09-11T17:46:19.826Z,7.70
2022-09-11T17:48:48.025Z,7.83
2022-09-11T17:51:20.115Z,7.83
2022-09-11T17:53:51.435Z,9.03
2022-09-11T17:56:20.879Z,9.17
2022-09-11T17:58:51.351Z,9.50
2022-09-11T18:01:19.972Z,9.00
2022-09-11T18:03:52.535Z,10.70
2022-09-11T18:06:25.378Z,10.13
2022-09-11T18:08:56.551Z,9.43
2022-09-11T18:11:24.877Z,9.40
2022-09-11T18:13:53.606Z,10.37
2022-09-11T18:16:21.592Z,9.83
2022-09-11T18:18:49.420Z,13.67
2022-09-11T18:21:17.371Z,27.93
2022-09-11T18:23:46.499Z,26.63
2022-09-11T18:26:23.116Z,23.17
2022-09-11T18:28:51.593Z,25.47
2022-09-11T18:31:20.058Z,32.10
2022-09-11T18:33:54.594Z,31.93
2022-09-11T18:36:23.480Z,32.63
2022-09-11T18:38:51.628Z,25.43
2022-09-11T18:41:21.572Z,33.07
2022-09-11T18:43:49.383Z,37.67
2022-09-11T18:46:17.221Z,30.47
2022-09-11T18:48:45.659Z,28.67
2022-09-11T18:51:15.177Z,27.83
2022-09-11T18:53:43.555Z,26.50
2022-09-11T18:56:12.148Z,25.67
2022-09-11T18:58:41.826Z,25.07
2022-09-11T19:01:12.082Z,24.27
2022-09-11T19:03:41.669Z,24.43
2022-09-11T19:06:11.683Z,23.67
2022-09-11T19:08:41.297Z,23.70
2022-09-11T19:11:10.834Z,22.90
2022-09-11T19:13:39.928Z,26.00
2022-09-11T19:16:09.821Z,23.17
2022-09-11T19:18:39.308Z,17.23
2022-09-11T19:21:10.256Z,18.63
2022-09-11T19:23:40.253Z,18.70
2022-09-11T19:26:12.017Z,19.83
2022-09-11T19:28:42.146Z,16.77
2022-09-11T19:31:13.142Z,14.17
2022-09-11T19:33:48.182Z,15.00
2022-09-11T19:36:18.303Z,16.70
2022-09-11T19:38:49.570Z,15.63
2022-09-11T19:41:20.394Z,15.63
2022-09-11T19:43:48.761Z,17.23
2022-09-11T19:46:19.656Z,16.83
2022-09-11T19:48:48.776Z,16.37
2022-09-11T19:51:21.404Z,16.47
2022-09-11T19:53:50.776Z,15.97
2022-09-11T19:56:19.695Z,15.23
2022-09-11T19:58:47.667Z,14.93
2022-09-11T20:01:18.476Z,16.57
2022-09-11T20:03:48.800Z,16.50
2022-09-11T20:06:18.352Z,16.23
2022-09-11T20:08:48.269Z,18.47
2022-09-11T20:11:18.890Z,15.57
2022-09-11T20:13:47.322Z,18.47
2022-09-11T20:16:20.132Z,17.33
2022-09-11T20:18:48.384Z,16.40
2022-09-11T20:21:17.519Z,16.93
2022-09-11T20:23:46.570Z,17.40
2022-09-11T20:26:17.551Z,17.60
2022-09-11T20:28:46.334Z,16.53
2022-09-11T20:31:15.368Z,17.33
2022-09-11T20:33:46.198Z,20.13
2022-09-11T20:36:14.815Z,17.83
2022-09-11T20:38:43.033Z,17.90
2022-09-11T20:41:14.871Z,17.83
2022-09-11T20:43:43.008Z,16.47
2022-09-11T20:46:11.372Z,17.20
2022-09-11T20:48:39.541Z,17.37
2022-09-11T20:51:11.039Z,16.77
2022-09-11T20:53:41.689Z,17.00
2022-09-11T20:56:12.537Z,15.57
2022-09-11T20:58:40.387Z,14.27
2022-09-11T21:01:11.362Z,16.13
2022-09-11T21:03:39.095Z,15.37
2022-09-11T21:06:09.657Z,15.77
2022-09-11T21:08:37.614Z,15.73
2022-09-11T21:11:06.908Z,17.00
2022-09-11T21:13:35.932Z,16.33
2022-09-11T21:16:06.963Z,16.53
2022-09-11T21:18:35.605Z,15.90
2022-09-11T21:21:03.561Z,15.90
2022-09-11T21:23:33.398Z,15.97
2022-09-11T21:26:01.191Z,16.40
2022-09-11T21:28:29.348Z,16.27
2022-09-11T21:31:02.021Z,17.07
2022-09-11T21:33:30.503Z,16.13
2022-09-11T21:35:58.544Z,16.97
2022-09-11T21:38:29.459Z,16.43
2022-09-11T21:41:00.789Z,16.70
2022-09-11T21:43:29.795Z,18.53
2022-09-11T21:45:57.764Z,19.90
2022-09-11T21:48:25.980Z,19.50
2022-09-11T21:50:53.906Z,19.47
2022-09-11T21:53:22.121Z,16.60
2022-09-11T21:55:49.990Z,15.57
2022-09-11T21:58:21.188Z,18.03
2022-09-11T22:00:49.936Z,14.20
2022-09-11T22:03:19.665Z,14.77
2022-09-11T22:05:52.182Z,14.77
2022-09-11T22:08:20.873Z,15.87
2022-09-11T22:10:51.473Z,16.47
2022-09-11T22:13:21.086Z,16.20
2022-09-11T22:15:51.649Z,16.63
2022-09-11T22:18:20.106Z,17.13
2022-09-11T22:20:48.058Z,16.83
2022-09-11T22:23:18.117Z,16.87
2022-09-11T22:25:47.062Z,16.67
2022-09-11T22:28:15.973Z,17.70
2022-09-11T22:30:45.523Z,16.60
2022-09-11T22:33:13.335Z,16.93
2022-09-11T22:35:41.176Z,16.07
2022-09-11T22:38:08.975Z,17.30
2022-09-11T22:40:36.944Z,17.07
2022-09-11T22:43:04.734Z,16.87
2022-09-11T22:45:32.949Z,17.70
2022-09-11T22:48:02.799Z,17.63
2022-09-11T22:50:31.001Z,19.00
2022-09-11T22:52:58.845Z,19.37
2022-09-11T22:55:26.911Z,22.93
2022-09-11T22:57:55.238Z,22.27
2022-09-11T23:00:23.161Z,21.40
2022-09-11T23:02:50.886Z,21.13
2022-09-11T23:05:38.004Z,19.77
2022-09-11T23:08:05.772Z,22.17
2022-09-11T23:10:33.612Z,22.33
2022-09-11T23:13:01.423Z,22.20
2022-09-11T23:15:29.149Z,21.07
2022-09-11T23:17:56.878Z,20.40
2022-09-11T23:20:26.325Z,20.23
2022-09-11T23:22:54.396Z,21.53
2022-09-11T23:25:22.277Z,19.97
2022-09-11T23:27:50.127Z,19.53
2022-09-11T23:30:18.117Z,19.37
2022-09-11T23:32:46.008Z,19.77
2022-09-11T23:35:14.071Z,21.13
2022-09-11T23:37:45.464Z,19.73
2022-09-11T23:40:13.535Z,21.20
2022-09-11T23:42:41.418Z,21.00
2022-09-11T23:45:12.636Z,20.63
2022-09-11T23:47:40.719Z,20.37
2022-09-11T23:50:09.538Z,20.93
2022-09-11T23:52:39.413Z,20.50
2022-09-11T23:55:09.414Z,20.17
2022-09-11T23:57:37.449Z,19.53
